createdAt,value
2022-10-13T00:01:20.666Z,96902.28
2022-10-13T00:03:48.508Z,96905.72
2022-10-13T00:06:22.541Z,96908.91
2022-10-13T00:08:49.652Z,96905.47
2022-10-13T00:11:22.663Z,96895.16
2022-10-13T00:13:50.940Z,96895.16
2022-10-13T00:16:18.885Z,96888.53
2022-10-13T00:18:45.942Z,96898.56
2022-10-13T00:21:16.239Z,96888.50
2022-10-13T00:23:45.918Z,96893.22
2022-10-13T00:26:17.337Z,96891.34
2022-10-13T00:28:53.017Z,96890.50
2022-10-13T00:31:31.559Z,96885.16
2022-10-13T00:34:00.317Z,96889.09
2022-10-13T00:36:27.898Z,96885.56
2022-10-13T00:38:55.037Z,96882.41
2022-10-13T00:41:22.463Z,96887.63
2022-10-13T00:43:54.978Z,96884.13
2022-10-13T00:46:22.759Z,96876.41
2022-10-13T00:49:02.557Z,96877.41
2022-10-13T00:51:33.645Z,96878.41
2022-10-13T00:54:03.637Z,96877.47
2022-10-13T00:56:31.097Z,96872.47
2022-10-13T00:59:00.327Z,96872.66
2022-10-13T01:01:27.417Z,96873.94
2022-10-13T01:03:54.465Z,96878.19
2022-10-13T01:06:23.852Z,96873.38
2022-10-13T01:08:51.521Z,96871.25
2022-10-13T01:11:43.599Z,96876.75
2022-10-13T01:14:15.698Z,96874.06
2022-10-13T01:17:01.577Z,96869.22
2022-10-13T01:20:05.977Z,96864.66
2022-10-13T01:22:38.859Z,96859.63
2022-10-13T01:25:27.318Z,96864.97
2022-10-13T01:28:21.219Z,96864.88
2022-10-13T01:31:06.297Z,96864.81
2022-10-13T01:33:44.257Z,96858.69
2022-10-13T01:36:39.098Z,96861.78
2022-10-13T01:39:47.980Z,96858.75
2022-10-13T01:42:20.583Z,96861.72
2022-10-13T01:44:53.837Z,96852.72
2022-10-13T01:47:23.158Z,96848.16
2022-10-13T01:49:53.259Z,96857.09
2022-10-13T01:52:24.017Z,96847.06
2022-10-13T01:54:52.677Z,96848.09
2022-10-13T01:57:32.637Z,96839.06
2022-10-13T02:00:04.557Z,96836.69
2022-10-13T02:02:49.017Z,96834.06
2022-10-13T02:05:19.018Z,96830.66
2022-10-13T02:07:57.897Z,96830.06
2022-10-13T02:10:55.937Z,96828.19
2022-10-13T02:13:26.946Z,96830.25
2022-10-13T02:15:59.316Z,96833.00
2022-10-13T02:18:31.598Z,96831.06
2022-10-13T02:20:59.337Z,96831.81
2022-10-13T02:23:27.556Z,96830.69
2022-10-13T02:25:55.857Z,96826.47
2022-10-13T02:28:22.967Z,96820.56
2022-10-13T02:30:50.197Z,96828.13
2022-10-13T02:33:17.661Z,96828.44
2022-10-13T02:35:44.785Z,96833.13
2022-10-13T02:38:12.126Z,96828.66
2022-10-13T02:40:39.187Z,96837.56
2022-10-13T02:43:06.305Z,96834.94
2022-10-13T02:45:33.236Z,96830.63
2022-10-13T02:48:00.328Z,96833.03
2022-10-13T02:50:27.342Z,96835.44
2022-10-13T02:52:56.739Z,96834.16
2022-10-13T02:55:23.799Z,96826.84
2022-10-13T02:57:56.696Z,96831.84
2022-10-13T03:00:23.917Z,96827.84
2022-10-13T03:02:50.978Z,96825.56
2022-10-13T03:05:18.178Z,96825.56
2022-10-13T03:07:45.226Z,96822.38
2022-10-13T03:10:12.278Z,96808.44
2022-10-13T03:12:39.259Z,96818.38
2022-10-13T03:15:06.878Z,96823.47
2022-10-13T03:17:33.838Z,96815.03
2022-10-13T03:20:00.837Z,96815.16
2022-10-13T03:22:27.857Z,96824.56
2022-10-13T03:24:54.878Z,96819.78
2022-10-13T03:27:21.857Z,96811.81
2022-10-13T03:29:48.867Z,96814.31
2022-10-13T03:32:17.045Z,96808.75
2022-10-13T03:34:44.197Z,96814.00
2022-10-13T03:37:11.157Z,96814.00
2022-10-13T03:39:42.146Z,96813.66
2022-10-13T03:42:10.786Z,96817.00
2022-10-13T03:44:39.457Z,96812.22
2022-10-13T03:47:07.339Z,96809.84
2022-10-13T03:49:34.278Z,96812.69
2022-10-13T03:52:01.281Z,96809.72
2022-10-13T03:54:28.300Z,96817.06
2022-10-13T03:56:55.264Z,96809.53
2022-10-13T03:59:22.493Z,96807.16
2022-10-13T04:01:49.596Z,96810.44
2022-10-13T04:04:16.617Z,96813.06
2022-10-13T04:06:46.038Z,96818.34
2022-10-13T04:09:13.317Z,96814.81
2022-10-13T04:11:40.298Z,96814.13
2022-10-13T04:14:07.698Z,96823.69
2022-10-13T04:16:35.268Z,96816.03
2022-10-13T04:19:06.134Z,96814.78
2022-10-13T04:21:34.172Z,96812.31
2022-10-13T04:24:02.579Z,96815.69
2022-10-13T04:26:32.734Z,96813.88
2022-10-13T04:29:08.345Z,96811.97
2022-10-13T04:31:36.022Z,96811.38
2022-10-13T04:34:03.497Z,96804.53
2022-10-13T04:36:30.629Z,96801.16
2022-10-13T04:38:58.256Z,96798.75
2022-10-13T04:41:26.382Z,96804.19
2022-10-13T04:43:54.502Z,96800.75
2022-10-13T04:46:27.509Z,96809.88
2022-10-13T04:48:57.504Z,96808.75
2022-10-13T04:51:31.980Z,96809.22
2022-10-13T04:54:02.143Z,96806.84
2022-10-13T04:56:29.860Z,96801.03
2022-10-13T04:59:02.858Z,96808.31
2022-10-13T05:01:30.186Z,96815.06
2022-10-13T05:04:00.310Z,96809.25
2022-10-13T05:06:30.337Z,96808.44
2022-10-13T05:08:58.138Z,96805.81
2022-10-13T05:11:26.998Z,96806.28
2022-10-13T05:13:54.980Z,96805.81
2022-10-13T05:16:23.942Z,96811.88
2022-10-13T05:18:52.783Z,96811.88
2022-10-13T05:21:25.257Z,96804.81
2022-10-13T05:23:56.193Z,96804.31
2022-10-13T05:26:29.437Z,96811.16
2022-10-13T05:28:57.436Z,96811.75
2022-10-13T05:31:26.842Z,96821.44
2022-10-13T05:33:54.339Z,96823.03
2022-10-13T05:36:34.378Z,96815.63
2022-10-13T05:39:04.179Z,96821.88
2022-10-13T05:41:32.085Z,96808.69
2022-10-13T05:44:05.145Z,96811.28
2022-10-13T05:46:32.425Z,96814.72
2022-10-13T05:48:59.696Z,96815.06
2022-10-13T05:51:43.917Z,96816.63
2022-10-13T05:54:25.297Z,96820.19
2022-10-13T05:57:16.928Z,96821.66
2022-10-13T05:59:53.876Z,96817.13
2022-10-13T06:02:24.566Z,96818.81
2022-10-13T06:04:54.155Z,96817.66
2022-10-13T06:07:21.346Z,96820.94
2022-10-13T06:09:49.924Z,96827.25
2022-10-13T06:12:17.161Z,96822.91
2022-10-13T06:14:44.206Z,96827.44
2022-10-13T06:17:11.732Z,96831.22
2022-10-13T06:19:43.377Z,96830.06
2022-10-13T06:22:10.316Z,96831.75
2022-10-13T06:24:37.459Z,96835.25
2022-10-13T06:27:08.241Z,96830.34
2022-10-13T06:29:36.356Z,96830.50
2022-10-13T06:32:03.516Z,96828.31
2022-10-13T06:34:30.406Z,96824.75
2022-10-13T06:36:58.376Z,96829.38
2022-10-13T06:39:26.660Z,96827.47
2022-10-13T06:41:55.502Z,96831.88
2022-10-13T06:44:32.067Z,96824.38
2022-10-13T06:47:03.378Z,96828.78
2022-10-13T06:49:30.336Z,96822.91
2022-10-13T06:51:57.348Z,96826.41
2022-10-13T06:54:24.389Z,96827.59
2022-10-13T06:56:52.096Z,96831.91
2022-10-13T06:59:19.408Z,96822.31
2022-10-13T07:01:47.606Z,96825.94
2022-10-13T07:04:15.926Z,96825.47
2022-10-13T07:06:42.946Z,96820.25
2022-10-13T07:09:10.634Z,96825.84
2022-10-13T07:11:37.511Z,96825.25
2022-10-13T07:14:04.522Z,96818.44
2022-10-13T07:16:32.043Z,96819.28
2022-10-13T07:18:59.077Z,96817.69
2022-10-13T07:21:26.485Z,96826.53
2022-10-13T07:23:53.517Z,96814.88
2022-10-13T07:26:20.809Z,96815.78
2022-10-13T07:28:47.924Z,96816.59
2022-10-13T07:31:19.003Z,96808.22
2022-10-13T07:33:48.889Z,96813.03
2022-10-13T07:36:17.699Z,96809.19
2022-10-13T07:38:44.676Z,96802.94
2022-10-13T07:41:13.001Z,96800.63
2022-10-13T07:43:40.208Z,96805.44
2022-10-13T07:46:08.421Z,96807.88
2022-10-13T07:48:36.166Z,96805.09
2022-10-13T07:51:08.447Z,96802.50
2022-10-13T07:53:35.717Z,96804.38
2022-10-13T07:56:04.337Z,96803.13
2022-10-13T07:58:31.606Z,96796.34
2022-10-13T08:01:00.607Z,96795.31
2022-10-13T08:03:29.204Z,96792.69
2022-10-13T08:05:58.427Z,96793.00
2022-10-13T08:08:25.451Z,96793.84
2022-10-13T08:13:39.517Z,96791.09
2022-10-13T08:16:21.088Z,96789.81
2022-10-13T08:18:48.890Z,96783.25
2022-10-13T08:24:11.685Z,96783.06
2022-10-13T08:26:39.105Z,96783.09
2022-10-13T08:29:23.047Z,96774.69
2022-10-13T08:31:53.015Z,96784.50
2022-10-13T08:34:21.711Z,96772.94
2022-10-13T08:36:49.045Z,96774.78
2022-10-13T08:39:16.094Z,96779.06
2022-10-13T08:41:44.345Z,96772.75
2022-10-13T08:44:56.707Z,96770.13
2022-10-13T08:47:12.508Z,96772.78
2022-10-13T08:49:42.545Z,96774.34
2022-10-13T08:52:49.478Z,96777.81
2022-10-13T08:55:24.067Z,96779.94
2022-10-13T08:57:51.363Z,96781.78
2022-10-13T09:00:20.596Z,96773.03
2022-10-13T09:02:49.984Z,96786.28
2022-10-13T09:05:28.926Z,96782.81
2022-10-13T09:08:09.446Z,96785.19
2022-10-13T09:10:49.896Z,96775.59
2022-10-13T09:13:22.566Z,96781.91
2022-10-13T09:15:50.816Z,96778.38
2022-10-13T09:18:17.579Z,96779.09
2022-10-13T09:20:44.538Z,96783.81
2022-10-13T09:23:14.498Z,96778.47
2022-10-13T09:25:48.596Z,96774.88
2022-10-13T09:28:27.317Z,96776.09
2022-10-13T09:31:14.044Z,96770.41
2022-10-13T09:33:41.693Z,96772.56
2022-10-13T09:36:16.507Z,96764.16
2022-10-13T09:39:05.642Z,96762.06
2022-10-13T09:41:33.845Z,96763.66
2022-10-13T09:44:13.360Z,96767.41
2022-10-13T09:46:49.158Z,96763.38
2022-10-13T09:49:37.980Z,96762.06
2022-10-13T09:52:15.668Z,96760.41
2022-10-13T09:54:47.169Z,96763.84
2022-10-13T09:57:35.943Z,96753.53
2022-10-13T10:00:17.757Z,96759.16
2022-10-13T10:02:51.557Z,96753.53
2022-10-13T10:05:26.446Z,96755.84
2022-10-13T10:08:16.916Z,96755.03
2022-10-13T10:10:44.815Z,96750.28
2022-10-13T10:13:13.375Z,96757.09
2022-10-13T10:16:04.696Z,96755.63
2022-10-13T10:18:37.697Z,96756.56
2022-10-13T10:21:26.627Z,96753.50
2022-10-13T10:24:29.838Z,96749.09
2022-10-13T10:27:26.065Z,96743.94
2022-10-13T10:30:10.033Z,96738.22
2022-10-13T10:33:24.786Z,96736.59
2022-10-13T10:36:16.961Z,96735.00
2022-10-13T10:38:52.996Z,96734.41
2022-10-13T10:41:41.305Z,96734.59
2022-10-13T10:44:33.831Z,96720.56
2022-10-13T10:47:11.548Z,96717.97
2022-10-13T10:49:41.590Z,96719.66
2022-10-13T10:52:22.296Z,96718.47
2022-10-13T10:55:24.466Z,96723.88
2022-10-13T10:58:12.936Z,96710.13
2022-10-13T11:13:18.665Z,96691.53
2022-10-13T11:15:46.594Z,96698.28
2022-10-13T11:19:08.175Z,96682.06
2022-10-13T11:21:53.235Z,96680.75
2022-10-13T11:24:41.670Z,96671.78
2022-10-13T11:27:17.307Z,96670.50
2022-10-13T11:29:47.408Z,96666.94
2022-10-13T11:32:35.418Z,96656.50
2022-10-13T11:35:06.107Z,96660.00
2022-10-13T11:38:06.033Z,96653.53
2022-10-13T11:40:36.577Z,96655.22
2022-10-13T11:43:26.055Z,96655.56
2022-10-13T11:46:08.857Z,96651.97
2022-10-13T11:49:03.677Z,96656.75
2022-10-13T11:51:32.778Z,96649.56
2022-10-13T11:54:19.845Z,96646.84
2022-10-13T11:56:53.467Z,96645.31
2022-10-13T11:59:27.926Z,96638.28
2022-10-13T12:01:59.466Z,96641.56
2022-10-13T12:04:28.698Z,96625.75
2022-10-13T12:07:01.977Z,96630.97
2022-10-13T12:09:31.606Z,96628.81
2022-10-13T12:12:07.626Z,96628.50
2022-10-13T12:14:43.675Z,96626.13
2022-10-13T12:17:33.116Z,96618.13
2022-10-13T12:20:19.571Z,96618.75
2022-10-13T12:22:50.440Z,96615.75
2022-10-13T12:25:23.277Z,96615.25
2022-10-13T12:27:56.039Z,96614.47
2022-10-13T12:30:26.881Z,96613.03
2022-10-13T12:32:56.766Z,96616.34
2022-10-13T12:35:34.790Z,96613.69
2022-10-13T12:38:03.526Z,96614.59
2022-10-13T12:40:34.677Z,96605.59
2022-10-13T12:43:04.033Z,96596.44
2022-10-13T12:45:34.624Z,96602.47
2022-10-13T12:48:01.600Z,96605.59
2022-10-13T12:50:28.477Z,96599.31
2022-10-13T12:53:03.717Z,96604.59
2022-10-13T12:55:32.047Z,96602.25
2022-10-13T12:57:59.644Z,96598.16
2022-10-13T13:00:29.399Z,96593.75
2022-10-13T13:03:02.356Z,96591.72
2022-10-13T13:05:31.447Z,96594.53
2022-10-13T13:08:03.646Z,96597.56
2022-10-13T13:10:31.345Z,96595.47
2022-10-13T13:13:14.525Z,96581.88
2022-10-13T13:15:41.756Z,96583.44
2022-10-13T13:18:27.076Z,96583.81
2022-10-13T13:20:55.331Z,96589.38
2022-10-13T13:23:23.648Z,96585.53
2022-10-13T13:26:15.577Z,96573.78
2022-10-13T13:28:46.351Z,96576.28
2022-10-13T13:31:15.061Z,96569.78
2022-10-13T13:33:42.114Z,96574.38
2022-10-13T13:36:18.441Z,96577.00
2022-10-13T13:38:47.537Z,96567.34
2022-10-13T13:41:15.877Z,96571.47
2022-10-13T13:43:43.059Z,96564.13
2022-10-13T13:46:23.644Z,96571.09
2022-10-13T13:48:51.213Z,96576.44
2022-10-13T13:51:18.665Z,96575.66
2022-10-13T13:53:46.108Z,96574.16
2022-10-13T13:56:15.003Z,96568.88
2022-10-13T13:58:42.334Z,96565.75
2022-10-13T14:01:09.549Z,96566.44
2022-10-13T14:03:36.576Z,96568.28
2022-10-13T14:06:06.236Z,96568.84
2022-10-13T14:08:34.254Z,96577.44
2022-10-13T14:11:01.347Z,96568.25
2022-10-13T14:13:28.279Z,96563.59
2022-10-13T14:15:58.695Z,96560.19
2022-10-13T14:18:26.170Z,96565.94
2022-10-13T14:20:53.099Z,96562.97
2022-10-13T14:23:20.098Z,96567.09
2022-10-13T14:25:47.043Z,96561.44
2022-10-13T14:28:18.061Z,96554.31
2022-10-13T14:30:45.645Z,96556.59
2022-10-13T14:33:12.609Z,96566.47
2022-10-13T14:35:39.525Z,96566.84
2022-10-13T14:38:11.513Z,96557.28
2022-10-13T14:40:43.188Z,96554.47
2022-10-13T14:43:10.196Z,96558.88
2022-10-13T14:45:37.187Z,96563.50
2022-10-13T14:48:04.376Z,96560.91
2022-10-13T14:50:31.551Z,96553.03
2022-10-13T14:52:58.592Z,96560.81
2022-10-13T14:55:27.854Z,96557.88
2022-10-13T14:57:54.848Z,96560.16
2022-10-13T15:00:21.873Z,96561.94
2022-10-13T15:02:48.957Z,96555.84
2022-10-13T15:05:16.015Z,96565.09
2022-10-13T15:07:42.982Z,96559.72
2022-10-13T15:10:10.170Z,96556.31
2022-10-13T15:12:37.222Z,96554.97
2022-10-13T15:15:04.650Z,96558.63
2022-10-13T15:17:33.445Z,96553.66
2022-10-13T15:20:00.691Z,96552.50
2022-10-13T15:22:27.748Z,96552.88
2022-10-13T15:24:54.763Z,96550.03
2022-10-13T15:27:21.750Z,96545.69
2022-10-13T15:29:48.786Z,96546.75
2022-10-13T15:32:18.607Z,96551.63
2022-10-13T15:34:50.540Z,96549.03
2022-10-13T15:37:17.566Z,96553.34
2022-10-13T15:39:44.595Z,96557.75
2022-10-13T15:42:12.108Z,96548.81
2022-10-13T15:47:26.107Z,96548.00
2022-10-13T15:49:53.116Z,96550.44
2022-10-13T15:52:20.598Z,96552.63
2022-10-13T15:54:51.612Z,96554.00
2022-10-13T15:57:18.734Z,96546.84
2022-10-13T15:59:45.639Z,96543.97
2022-10-13T16:02:12.638Z,96548.75
2022-10-13T16:04:39.676Z,96551.16
2022-10-13T16:07:06.576Z,96554.13
2022-10-13T16:09:33.634Z,96563.94
2022-10-13T16:12:00.576Z,96563.41
2022-10-13T16:14:27.733Z,96558.38
2022-10-13T16:16:54.736Z,96563.44
2022-10-13T16:19:21.855Z,96555.53
2022-10-13T16:21:48.885Z,96557.69
2022-10-13T16:24:15.972Z,96557.41
2022-10-13T16:26:43.156Z,96558.00
2022-10-13T16:29:10.165Z,96565.16
2022-10-13T16:31:37.127Z,96570.72
2022-10-13T16:34:04.236Z,96564.09
2022-10-13T16:36:31.494Z,96563.09
2022-10-13T16:38:59.176Z,96568.66
2022-10-13T16:41:26.292Z,96566.84
2022-10-13T16:43:53.657Z,96570.81
2022-10-13T16:46:21.036Z,96570.28
2022-10-13T16:48:48.371Z,96572.66
2022-10-13T16:51:18.568Z,96579.31
2022-10-13T16:53:54.036Z,96582.25
2022-10-13T16:56:25.125Z,96573.50
2022-10-13T16:59:01.033Z,96572.97
2022-10-13T17:01:29.338Z,96578.59
2022-10-13T17:03:56.686Z,96583.91
2022-10-13T17:06:26.595Z,96584.72
2022-10-13T17:09:00.728Z,96587.63
2022-10-13T17:11:30.916Z,96585.28
2022-10-13T17:13:59.508Z,96587.41
2022-10-13T17:16:30.834Z,96589.53
2022-10-13T17:18:57.906Z,96588.22
2022-10-13T17:21:33.355Z,96589.81
2022-10-13T17:24:00.477Z,96581.09
2022-10-13T17:26:27.508Z,96573.41
2022-10-13T17:28:55.389Z,96573.72
2022-10-13T17:31:24.066Z,96573.19
2022-10-13T17:33:51.965Z,96579.31
2022-10-13T17:36:24.325Z,96576.38
2022-10-13T17:38:52.645Z,96567.69
2022-10-13T17:41:20.217Z,96579.59
2022-10-13T17:43:51.658Z,96573.28
2022-10-13T17:46:38.397Z,96588.13
2022-10-13T17:49:11.822Z,96578.88
2022-10-13T17:51:42.747Z,96569.63
2022-10-13T17:54:15.721Z,96574.41
2022-10-13T17:56:44.216Z,96584.44
2022-10-13T17:59:11.418Z,96583.13
2022-10-13T18:01:38.584Z,96591.06
2022-10-13T18:04:08.754Z,96588.44
2022-10-13T18:06:41.126Z,96588.72
2022-10-13T18:09:14.795Z,96579.72
2022-10-13T18:11:48.767Z,96582.13
2022-10-13T18:14:17.815Z,96586.34
2022-10-13T18:16:44.866Z,96594.28
2022-10-13T18:19:13.275Z,96593.75
2022-10-13T18:21:40.425Z,96592.69
2022-10-13T18:24:09.215Z,96591.91
2022-10-13T18:26:36.258Z,96591.88
2022-10-13T18:29:06.237Z,96590.28
2022-10-13T18:31:35.820Z,96591.63
2022-10-13T18:34:06.066Z,96589.50
2022-10-13T18:36:56.715Z,96591.13
2022-10-13T18:39:26.696Z,96588.72
2022-10-13T18:41:55.417Z,96595.84
2022-10-13T18:44:23.862Z,96594.00
2022-10-13T18:46:52.388Z,96599.81
2022-10-13T18:49:23.415Z,96595.56
2022-10-13T18:51:51.897Z,96588.69
2022-10-13T18:54:19.009Z,96588.94
2022-10-13T18:56:45.997Z,96595.03
2022-10-13T18:59:12.994Z,96596.34
2022-10-13T19:01:41.176Z,96584.72
2022-10-13T19:04:08.828Z,96582.84
2022-10-13T19:06:35.805Z,96584.19
2022-10-13T19:09:06.296Z,96583.88
2022-10-13T19:11:36.571Z,96588.88
2022-10-13T19:14:05.745Z,96578.88
2022-10-13T19:16:37.075Z,96581.22
2022-10-13T19:19:04.592Z,96582.75
2022-10-13T19:21:33.003Z,96581.97
2022-10-13T19:24:00.390Z,96575.59
2022-10-13T19:26:30.840Z,96574.56
2022-10-13T19:29:00.401Z,96576.41
2022-10-13T19:31:29.627Z,96575.34
2022-10-13T19:33:57.149Z,96571.88
2022-10-13T19:36:37.664Z,96572.09
2022-10-13T19:39:07.822Z,96572.63
2022-10-13T19:41:35.376Z,96569.47
2022-10-13T19:44:03.145Z,96568.91
2022-10-13T19:46:39.475Z,96575.47
2022-10-13T19:49:06.785Z,96577.31
2022-10-13T19:51:35.704Z,96583.06
2022-10-13T19:54:03.158Z,96578.84
2022-10-13T19:56:31.897Z,96584.13
2022-10-13T19:58:59.117Z,96578.81
2022-10-13T20:01:26.281Z,96582.00
2022-10-13T20:03:53.434Z,96585.69
2022-10-13T20:06:21.106Z,96582.50
2022-10-13T20:08:48.871Z,96573.78
2022-10-13T20:11:24.170Z,96580.09
2022-10-13T20:13:52.577Z,96578.00
2022-10-13T20:16:22.285Z,96576.16
2022-10-13T20:18:58.036Z,96574.03
2022-10-13T20:21:27.061Z,96579.06
2022-10-13T20:23:54.371Z,96570.66
2022-10-13T20:26:21.920Z,96568.00
2022-10-13T20:28:50.499Z,96561.41
2022-10-13T20:31:19.494Z,96563.00
2022-10-13T20:33:47.246Z,96559.56
2022-10-13T20:36:16.687Z,96556.69
2022-10-13T20:38:43.733Z,96563.56
2022-10-13T20:41:15.527Z,96559.88
2022-10-13T20:43:42.988Z,96558.53
2022-10-13T20:46:10.499Z,96558.81
2022-10-13T20:51:26.991Z,96552.22
2022-10-13T20:53:54.016Z,96550.88
2022-10-13T20:56:23.666Z,96557.72
2022-10-13T20:58:51.286Z,96554.53
2022-10-13T21:01:19.989Z,96550.53
2022-10-13T21:03:47.106Z,96554.75
2022-10-13T21:06:14.836Z,96550.19
2022-10-13T21:08:45.895Z,96553.88
2022-10-13T21:11:14.682Z,96557.28
2022-10-13T21:13:44.709Z,96557.00
2022-10-13T21:16:17.236Z,96557.75
2022-10-13T21:18:48.259Z,96552.72
2022-10-13T21:21:17.118Z,96555.28
2022-10-13T21:23:44.096Z,96550.28
2022-10-13T21:26:14.371Z,96550.78
2022-10-13T21:28:44.612Z,96542.53
2022-10-13T21:31:14.057Z,96548.84
2022-10-13T21:33:42.185Z,96547.00
2022-10-13T21:36:10.048Z,96549.25
2022-10-13T21:38:37.386Z,96547.16
2022-10-13T21:41:05.885Z,96540.34
2022-10-13T21:43:33.787Z,96545.63
2022-10-13T21:46:15.272Z,96540.66
2022-10-13T21:48:46.746Z,96533.59
2022-10-13T21:51:20.014Z,96535.22
2022-10-13T21:53:51.985Z,96537.84
2022-10-13T21:56:19.646Z,96528.94
2022-10-13T21:58:47.605Z,96532.09
2022-10-13T22:01:15.756Z,96525.25
2022-10-13T22:03:43.128Z,96519.72
2022-10-13T22:06:19.083Z,96530.03
2022-10-13T22:08:48.968Z,96518.69
2022-10-13T22:11:22.577Z,96522.69
2022-10-13T22:13:49.568Z,96524.81
2022-10-13T22:16:22.586Z,96531.16
2022-10-13T22:18:53.137Z,96521.16
2022-10-13T22:21:23.113Z,96527.50
2022-10-13T22:23:50.084Z,96517.47
2022-10-13T22:26:18.429Z,96516.41
2022-10-13T22:28:48.386Z,96516.97
2022-10-13T22:31:15.490Z,96517.50
2022-10-13T22:33:43.506Z,96514.34
2022-10-13T22:36:14.699Z,96511.47
2022-10-13T22:38:42.746Z,96518.34
2022-10-13T22:41:10.487Z,96516.25
2022-10-13T22:43:37.786Z,96511.47
2022-10-13T22:46:13.066Z,96513.06
2022-10-13T22:48:41.117Z,96511.78
2022-10-13T22:51:16.757Z,96515.47
2022-10-13T22:53:44.925Z,96513.09
2022-10-13T22:56:15.757Z,96520.72
2022-10-13T22:58:42.819Z,96512.03
2022-10-13T23:01:15.046Z,96506.75
2022-10-13T23:03:42.227Z,96505.72
2022-10-13T23:06:13.953Z,96504.38
2022-10-13T23:08:41.295Z,96504.06
2022-10-13T23:11:08.352Z,96504.34
2022-10-13T23:13:35.707Z,96500.63
2022-10-13T23:16:03.493Z,96493.53
2022-10-13T23:18:34.435Z,96495.09
2022-10-13T23:21:08.865Z,96492.72
2022-10-13T23:23:35.928Z,96493.28
2022-10-13T23:26:04.815Z,96494.34
2022-10-13T23:28:32.954Z,96499.63
2022-10-13T23:31:06.993Z,96491.69
2022-10-13T23:33:33.999Z,96507.50
2022-10-13T23:36:01.924Z,96496.69
2022-10-13T23:38:30.494Z,96494.31
2022-10-13T23:41:09.655Z,96495.59
2022-10-13T23:43:38.373Z,96495.03
2022-10-13T23:46:05.456Z,96503.72
2022-10-13T23:48:32.553Z,96492.34
2022-10-13T23:51:05.134Z,96487.88
2022-10-13T23:53:35.663Z,96488.09
2022-10-13T23:56:04.603Z,96486.47
2022-10-13T23:58:32.194Z,96493.84
